Time;durP1;ratioP1;P1;durP2;ratioP2;P2;SDS_P1;SDS_P2;PMS_P1;PMS_P2;Temp;Humidity;BMP_temperature;BMP_pressure;BME280_temperature;BME280_humidity;BME280_pressure;Samples;Min_cycle;Max_cycle;Signal;HPM_P1;HPM_P2
2023/04/21 00:01:58;;;;;;;18.83;10.20;;;;;;;;;;766846;181;916928;-60
2023/04/21 00:04:23;;;;;;;17.20;9.00;;;;;;;;;;763111;182;919432;-58
2023/04/21 00:06:51;;;;;;;16.00;10.10;;;;;;;;;;760061;181;923065;-59
2023/04/21 00:09:17;;;;;;;15.40;8.53;;;;;;;;;;756099;184;919926;-59
2023/04/21 00:11:41;;;;;;;22.23;10.10;;;;;;;;;;766029;182;921009;-60
2023/04/21 00:14:07;;;;;;;15.20;9.20;;;;;;;;;;764932;182;919215;-59
2023/04/21 00:16:32;;;;;;;14.53;9.30;;;;;;;;;;769495;183;920872;-60
2023/04/21 00:18:58;;;;;;;14.40;9.33;;;;;;;;;;754254;184;918241;-60
2023/04/21 00:21:24;;;;;;;16.27;9.03;;;;;;;;;;750417;185;1020574;-60
2023/04/21 00:23:50;;;;;;;19.50;10.93;;;;;;;;;;758665;182;919419;-59
2023/04/21 00:26:16;;;;;;;15.33;9.97;;;;;;;;;;762077;182;919530;-59
2023/04/21 00:28:42;;;;;;;17.30;9.83;;;;;;;;;;763172;182;918189;-60
2023/04/21 00:31:08;;;;;;;21.97;11.53;;;;;;;;;;761463;184;922257;-60
2023/04/21 00:33:33;;;;;;;19.50;10.20;;;;;;;;;;758110;184;921504;-59
2023/04/21 00:35:59;;;;;;;15.43;9.27;;;;;;;;;;753085;186;840060;-58
2023/04/21 00:38:25;;;;;;;13.77;7.60;;;;;;;;;;759484;183;918981;-59
2023/04/21 00:40:51;;;;;;;13.73;8.57;;;;;;;;;;765412;182;918385;-59
2023/04/21 00:43:17;;;;;;;14.60;8.20;;;;;;;;;;762783;182;838703;-60
2023/04/21 00:45:43;;;;;;;12.97;7.83;;;;;;;;;;763092;182;918441;-60
2023/04/21 00:48:08;;;;;;;16.23;9.93;;;;;;;;;;768212;182;919122;-59
2023/04/21 00:50:34;;;;;;;15.03;9.00;;;;;;;;;;758401;183;917434;-60
2023/04/21 00:53:00;;;;;;;16.87;9.33;;;;;;;;;;760677;183;871570;-59
2023/04/21 00:55:27;;;;;;;20.30;10.05;;;;;;;;;;762879;182;919105;-59
2023/04/21 00:57:52;;;;;;;15.73;9.40;;;;;;;;;;748955;182;919348;-60
2023/04/21 01:00:19;;;;;;;18.23;13.10;;;;;;;;;;727141;191;919938;-58
2023/04/21 01:02:44;;;;;;;20.73;10.33;;;;;;;;;;764075;182;919130;-61
2023/04/21 01:05:11;;;;;;;23.17;10.77;;;;;;;;;;764539;184;919238;-59
2023/04/21 01:07:36;;;;;;;21.70;11.70;;;;;;;;;;749158;185;921091;-59
2023/04/21 01:10:02;;;;;;;17.20;11.00;;;;;;;;;;751206;182;919276;-60
2023/04/21 01:12:28;;;;;;;15.47;11.40;;;;;;;;;;756028;185;917462;-59
2023/04/21 01:14:54;;;;;;;21.97;11.60;;;;;;;;;;754139;182;921076;-60
2023/04/21 01:17:20;;;;;;;24.25;11.85;;;;;;;;;;763719;183;863546;-60
2023/04/21 01:19:45;;;;;;;19.53;11.67;;;;;;;;;;768905;182;923525;-59
2023/04/21 01:22:11;;;;;;;16.17;9.77;;;;;;;;;;749478;184;919494;-60
2023/04/21 01:24:39;;;;;;;15.60;11.35;;;;;;;;;;751473;182;920974;-59
2023/04/21 01:27:09;;;;;;;19.60;11.87;;;;;;;;;;759461;183;921058;-60
2023/04/21 01:29:35;;;;;;;17.43;13.47;;;;;;;;;;755992;185;821176;-60
2023/04/21 01:32:03;;;;;;;17.70;10.83;;;;;;;;;;750952;185;919634;-59
2023/04/21 01:34:29;;;;;;;20.27;12.10;;;;;;;;;;752593;182;919996;-60
2023/04/21 01:36:55;;;;;;;15.80;9.53;;;;;;;;;;764787;182;918921;-59
2023/04/21 01:39:21;;;;;;;18.03;8.70;;;;;;;;;;767638;181;922404;-59
2023/04/21 01:41:47;;;;;;;14.87;9.30;;;;;;;;;;763241;181;922304;-60
2023/04/21 01:44:12;;;;;;;19.30;9.90;;;;;;;;;;764413;181;916558;-60
2023/04/21 01:46:38;;;;;;;18.07;11.40;;;;;;;;;;771325;182;817703;-60
2023/04/21 01:49:04;;;;;;;20.37;9.60;;;;;;;;;;765771;181;817399;-59
2023/04/21 01:51:30;;;;;;;18.90;12.00;;;;;;;;;;764775;182;919023;-59
2023/04/21 01:53:56;;;;;;;19.27;10.20;;;;;;;;;;771512;182;818588;-59
2023/04/21 01:56:22;;;;;;;23.85;9.88;;;;;;;;;;766579;182;955344;-59
2023/04/21 01:58:47;;;;;;;19.63;9.37;;;;;;;;;;767135;182;917362;-59
2023/04/21 02:01:14;;;;;;;16.65;11.23;;;;;;;;;;773448;178;921838;-60
2023/04/21 02:03:40;;;;;;;21.53;11.70;;;;;;;;;;759008;183;919889;-60
2023/04/21 02:06:06;;;;;;;15.40;11.10;;;;;;;;;;740735;184;914473;-59
2023/04/21 02:08:32;;;;;;;23.63;12.70;;;;;;;;;;759638;182;915005;-59
2023/04/21 02:10:58;;;;;;;15.63;12.07;;;;;;;;;;770361;182;918319;-59
2023/04/21 02:13:24;;;;;;;22.10;11.87;;;;;;;;;;767736;181;918932;-60
2023/04/21 02:15:50;;;;;;;35.93;13.37;;;;;;;;;;768178;181;898268;-59
2023/04/21 02:18:15;;;;;;;23.40;11.43;;;;;;;;;;757137;184;919313;-59
2023/04/21 02:20:41;;;;;;;19.53;10.00;;;;;;;;;;758634;184;923161;-59
2023/04/21 02:23:07;;;;;;;17.90;10.50;;;;;;;;;;749203;186;919367;-60
2023/04/21 02:25:33;;;;;;;19.50;12.03;;;;;;;;;;761690;182;898446;-59
2023/04/21 02:27:59;;;;;;;22.53;11.60;;;;;;;;;;764243;181;920863;-59
2023/04/21 02:30:25;;;;;;;16.43;10.90;;;;;;;;;;762803;182;921445;-59
2023/04/21 02:32:50;;;;;;;15.33;10.97;;;;;;;;;;756076;183;920218;-59
2023/04/21 02:35:16;;;;;;;17.30;11.40;;;;;;;;;;756095;184;919297;-60
2023/04/21 02:37:42;;;;;;;22.97;11.60;;;;;;;;;;766438;182;819889;-58
2023/04/21 02:40:09;;;;;;;17.40;11.97;;;;;;;;;;764501;182;919498;-59
2023/04/21 02:42:34;;;;;;;19.90;12.87;;;;;;;;;;771656;182;919148;-59
2023/04/21 02:45:00;;;;;;;22.80;11.40;;;;;;;;;;764770;182;919696;-60
2023/04/21 02:47:26;;;;;;;29.60;15.07;;;;;;;;;;766584;182;940601;-59
2023/04/21 02:49:52;;;;;;;22.73;12.50;;;;;;;;;;771546;182;919168;-59
2023/04/21 02:52:18;;;;;;;19.67;14.13;;;;;;;;;;766022;183;889910;-58
2023/04/21 02:54:44;;;;;;;25.02;13.77;;;;;;;;;;760535;182;857590;-59
2023/04/21 02:57:09;;;;;;;27.40;12.50;;;;;;;;;;763532;181;916560;-59
2023/04/21 02:59:35;;;;;;;21.63;14.67;;;;;;;;;;772285;181;911488;-59
2023/04/21 03:02:01;;;;;;;23.83;14.20;;;;;;;;;;756122;179;914979;-59
2023/04/21 03:04:27;;;;;;;25.40;13.93;;;;;;;;;;752804;183;919376;-59
2023/04/21 03:06:53;;;;;;;22.27;14.60;;;;;;;;;;757347;185;921950;-59
2023/04/21 03:09:19;;;;;;;18.00;13.00;;;;;;;;;;752143;182;920912;-60
2023/04/21 03:11:45;;;;;;;24.10;12.90;;;;;;;;;;759698;182;1021607;-59
2023/04/21 03:14:10;;;;;;;36.27;22.10;;;;;;;;;;772320;182;1124669;-59
2023/04/21 03:16:36;;;;;;;34.23;22.40;;;;;;;;;;763776;182;919640;-58
2023/04/21 03:19:02;;;;;;;28.30;18.45;;;;;;;;;;764757;182;918938;-60
2023/04/21 03:21:28;;;;;;;23.63;12.50;;;;;;;;;;766249;181;920140;-59
2023/04/21 03:23:54;;;;;;;21.67;14.03;;;;;;;;;;756276;182;918924;-60
2023/04/21 03:26:20;;;;;;;18.00;13.40;;;;;;;;;;763192;181;920094;-59
2023/04/21 03:28:45;;;;;;;17.60;12.43;;;;;;;;;;760489;182;920569;-58
2023/04/21 03:31:11;;;;;;;21.27;13.73;;;;;;;;;;770152;182;919866;-59
2023/04/21 03:33:37;;;;;;;21.98;13.95;;;;;;;;;;764540;181;819015;-59
2023/04/21 03:36:03;;;;;;;19.90;13.20;;;;;;;;;;760134;182;920850;-59
2023/04/21 03:38:29;;;;;;;24.80;15.40;;;;;;;;;;767627;184;918817;-60
2023/04/21 03:40:55;;;;;;;21.35;15.15;;;;;;;;;;764784;182;918935;-58
2023/04/21 03:43:21;;;;;;;19.43;14.97;;;;;;;;;;763773;182;919766;-59
2023/04/21 03:45:47;;;;;;;35.70;22.48;;;;;;;;;;759962;182;920157;-59
2023/04/21 03:48:13;;;;;;;38.37;22.20;;;;;;;;;;758403;185;916593;-59
2023/04/21 03:50:39;;;;;;;37.37;25.40;;;;;;;;;;766063;181;919642;-60
2023/04/21 03:53:05;;;;;;;31.40;22.93;;;;;;;;;;759105;182;918422;-59
2023/04/21 03:55:31;;;;;;;29.00;20.80;;;;;;;;;;769747;182;913886;-58
2023/04/21 03:57:56;;;;;;;24.13;15.90;;;;;;;;;;764369;182;910687;-60
2023/04/21 04:00:22;;;;;;;30.15;17.20;;;;;;;;;;764726;182;910013;-59
2023/04/21 04:02:48;;;;;;;28.63;17.63;;;;;;;;;;764895;182;910769;-59
2023/04/21 04:05:14;;;;;;;24.47;15.83;;;;;;;;;;764879;182;912141;-59
2023/04/21 04:07:40;;;;;;;25.83;17.07;;;;;;;;;;759741;182;918481;-58
2023/04/21 04:10:06;;;;;;;35.33;18.20;;;;;;;;;;770696;182;914637;-59
2023/04/21 04:12:32;;;;;;;21.63;15.70;;;;;;;;;;763624;182;918437;-59
2023/04/21 04:14:57;;;;;;;21.80;16.93;;;;;;;;;;762472;182;908076;-59
2023/04/21 04:17:23;;;;;;;30.77;21.77;;;;;;;;;;762875;181;916325;-59
2023/04/21 04:19:49;;;;;;;30.67;20.90;;;;;;;;;;767431;182;917672;-59
2023/04/21 04:22:15;;;;;;;34.93;18.57;;;;;;;;;;759001;182;913729;-60
2023/04/21 04:24:43;;;;;;;22.00;17.33;;;;;;;;;;767652;181;922279;-59
2023/04/21 04:27:08;;;;;;;50.57;32.47;;;;;;;;;;769294;181;920259;-58
2023/04/21 04:29:33;;;;;;;39.03;22.33;;;;;;;;;;760590;182;910691;-60
2023/04/21 04:32:00;;;;;;;94.75;63.17;;;;;;;;;;770730;180;881431;-60
2023/04/21 04:34:24;;;;;;;57.93;36.53;;;;;;;;;;768030;181;836954;-59
2023/04/21 04:36:50;;;;;;;30.17;17.43;;;;;;;;;;767696;182;807091;-61
2023/04/21 04:39:16;;;;;;;31.83;19.97;;;;;;;;;;761978;182;917975;-59
2023/04/21 04:41:42;;;;;;;36.13;20.97;;;;;;;;;;760795;184;919487;-60
2023/04/21 04:44:08;;;;;;;22.37;15.57;;;;;;;;;;768325;182;944087;-60
2023/04/21 04:46:34;;;;;;;26.47;19.40;;;;;;;;;;763091;180;917785;-59
2023/04/21 04:49:00;;;;;;;30.23;16.87;;;;;;;;;;761068;183;632984;-59
2023/04/21 04:51:25;;;;;;;21.27;15.47;;;;;;;;;;764902;182;920243;-60
2023/04/21 04:53:51;;;;;;;25.07;17.00;;;;;;;;;;769653;182;635018;-59
2023/04/21 04:56:17;;;;;;;24.43;16.90;;;;;;;;;;765351;183;922202;-59
2023/04/21 04:58:45;;;;;;;22.67;14.67;;;;;;;;;;753806;185;816322;-59
2023/04/21 05:01:10;;;;;;;22.43;13.80;;;;;;;;;;758204;183;918369;-59
2023/04/21 05:03:35;;;;;;;20.67;13.30;;;;;;;;;;766519;181;632606;-60
2023/04/21 05:06:01;;;;;;;24.20;14.70;;;;;;;;;;765364;182;636317;-59
2023/04/21 05:08:27;;;;;;;20.20;13.50;;;;;;;;;;769025;181;626702;-61
2023/04/21 05:10:53;;;;;;;20.47;13.43;;;;;;;;;;767948;181;627649;-59
2023/04/21 05:13:19;;;;;;;18.60;12.50;;;;;;;;;;768061;181;918631;-59
2023/04/21 05:15:45;;;;;;;19.93;13.27;;;;;;;;;;765166;182;816522;-59
2023/04/21 05:18:10;;;;;;;15.67;11.60;;;;;;;;;;760599;182;919296;-59
2023/04/21 05:20:36;;;;;;;15.50;11.53;;;;;;;;;;768427;182;823751;-60
2023/04/21 05:23:02;;;;;;;21.90;12.37;;;;;;;;;;772254;182;919130;-59
2023/04/21 05:25:28;;;;;;;23.00;11.00;;;;;;;;;;765417;179;919186;-59
2023/04/21 05:27:54;;;;;;;19.40;10.93;;;;;;;;;;752191;186;837601;-59
2023/04/21 05:30:20;;;;;;;17.30;11.77;;;;;;;;;;759753;183;918922;-59
2023/04/21 05:32:46;;;;;;;18.27;12.07;;;;;;;;;;762882;182;921798;-59
2023/04/21 05:35:11;;;;;;;17.63;11.03;;;;;;;;;;761640;182;917647;-60
2023/04/21 05:37:37;;;;;;;16.30;9.23;;;;;;;;;;763222;181;916235;-60
2023/04/21 05:40:03;;;;;;;21.20;10.40;;;;;;;;;;771996;181;939208;-59
2023/04/21 05:42:29;;;;;;;15.67;10.63;;;;;;;;;;757890;183;919182;-59
2023/04/21 05:44:55;;;;;;;19.50;11.27;;;;;;;;;;762939;183;916884;-59
2023/04/21 05:47:21;;;;;;;15.17;9.83;;;;;;;;;;767581;182;918650;-58
2023/04/21 05:49:49;;;;;;;16.03;9.90;;;;;;;;;;763270;183;916906;-59
2023/04/21 05:52:13;;;;;;;16.20;8.93;;;;;;;;;;763641;182;919969;-59
2023/04/21 05:54:39;;;;;;;20.87;9.50;;;;;;;;;;767616;183;921335;-59
2023/04/21 05:57:07;;;;;;;23.53;10.97;;;;;;;;;;758199;182;918654;-59
2023/04/21 05:59:30;;;;;;;16.17;10.40;;;;;;;;;;768223;182;627813;-59
2023/04/21 06:01:56;;;;;;;16.07;11.43;;;;;;;;;;762525;182;915025;-60
2023/04/21 06:04:22;;;;;;;20.87;13.30;;;;;;;;;;752994;184;643383;-58
2023/04/21 06:06:48;;;;;;;22.13;11.43;;;;;;;;;;753244;183;920124;-59
2023/04/21 06:09:14;;;;;;;18.30;12.80;;;;;;;;;;753498;184;914316;-60
2023/04/21 06:11:40;;;;;;;28.53;13.83;;;;;;;;;;760167;184;835202;-59
2023/04/21 06:14:05;;;;;;;20.37;13.67;;;;;;;;;;763766;183;916907;-58
2023/04/21 06:16:33;;;;;;;19.47;12.20;;;;;;;;;;754724;184;880997;-59
2023/04/21 06:18:57;;;;;;;17.57;12.03;;;;;;;;;;767928;182;918985;-59
2023/04/21 06:21:23;;;;;;;30.10;13.03;;;;;;;;;;752027;184;917451;-60
2023/04/21 06:23:49;;;;;;;18.30;11.70;;;;;;;;;;763017;182;917920;-62
2023/04/21 06:26:15;;;;;;;20.25;10.00;;;;;;;;;;765877;182;922201;-60
2023/04/21 06:28:41;;;;;;;18.27;11.03;;;;;;;;;;768125;182;851295;-59
2023/04/21 06:31:08;;;;;;;23.13;12.17;;;;;;;;;;760982;179;917039;-59
2023/04/21 06:33:32;;;;;;;17.73;9.90;;;;;;;;;;753336;182;920462;-60
2023/04/21 06:35:58;;;;;;;19.00;11.60;;;;;;;;;;756377;182;914975;-58
2023/04/21 06:38:24;;;;;;;20.63;13.77;;;;;;;;;;762092;183;921582;-59
2023/04/21 06:40:50;;;;;;;23.10;14.40;;;;;;;;;;751281;187;919591;-59
2023/04/21 06:43:16;;;;;;;25.30;14.67;;;;;;;;;;768466;182;917401;-60
2023/04/21 06:45:41;;;;;;;29.57;14.77;;;;;;;;;;754414;182;920131;-59
2023/04/21 06:48:07;;;;;;;25.10;17.13;;;;;;;;;;761103;182;920791;-59
2023/04/21 06:50:33;;;;;;;45.10;14.23;;;;;;;;;;765854;181;854413;-58
2023/04/21 06:52:59;;;;;;;26.10;15.70;;;;;;;;;;766253;182;922774;-59
2023/04/21 06:55:25;;;;;;;27.50;15.30;;;;;;;;;;765556;182;920684;-59
2023/04/21 06:57:51;;;;;;;23.40;15.40;;;;;;;;;;765507;181;919467;-59
2023/04/21 07:00:17;;;;;;;25.17;16.23;;;;;;;;;;761795;182;919464;-60
2023/04/21 07:02:42;;;;;;;28.83;14.87;;;;;;;;;;764814;181;918811;-60
2023/04/21 07:05:08;;;;;;;21.10;15.73;;;;;;;;;;768330;180;918979;-60
2023/04/21 07:07:34;;;;;;;37.57;14.37;;;;;;;;;;766646;182;918498;-59
2023/04/21 07:10:00;;;;;;;30.07;17.77;;;;;;;;;;763371;182;919698;-59
2023/04/21 07:12:26;;;;;;;23.73;16.02;;;;;;;;;;763051;182;917557;-59
2023/04/21 07:14:52;;;;;;;27.47;15.73;;;;;;;;;;767839;182;917655;-60
2023/04/21 07:17:18;;;;;;;27.70;17.07;;;;;;;;;;756601;182;942552;-60
2023/04/21 07:19:44;;;;;;;27.83;17.50;;;;;;;;;;767342;182;941769;-59
2023/04/21 07:22:09;;;;;;;26.67;16.20;;;;;;;;;;763612;182;853582;-62
2023/04/21 07:24:36;;;;;;;30.03;17.17;;;;;;;;;;768712;182;919827;-59
2023/04/21 07:27:01;;;;;;;24.60;13.83;;;;;;;;;;767685;182;919289;-60
2023/04/21 07:29:27;;;;;;;25.37;16.27;;;;;;;;;;766648;182;919529;-61
2023/04/21 07:31:54;;;;;;;24.40;15.15;;;;;;;;;;768192;182;920472;-61
2023/04/21 07:34:19;;;;;;;23.63;13.00;;;;;;;;;;755958;184;919514;-60
2023/04/21 07:36:45;;;;;;;27.23;16.47;;;;;;;;;;747243;188;919612;-61
2023/04/21 07:39:10;;;;;;;32.50;14.60;;;;;;;;;;762364;182;918516;-59
2023/04/21 07:41:36;;;;;;;23.47;14.80;;;;;;;;;;764337;181;918425;-60
2023/04/21 07:44:02;;;;;;;19.30;13.10;;;;;;;;;;752794;183;938196;-60
2023/04/21 07:46:30;;;;;;;32.78;16.52;;;;;;;;;;758600;183;919057;-60
2023/04/21 07:48:56;;;;;;;21.27;14.47;;;;;;;;;;756515;183;917013;-59
2023/04/21 07:51:21;;;;;;;23.27;14.90;;;;;;;;;;761394;181;919781;-59
2023/04/21 07:53:47;;;;;;;18.20;12.40;;;;;;;;;;762852;182;919503;-59
2023/04/21 07:56:13;;;;;;;28.73;16.80;;;;;;;;;;771810;182;916798;-60
2023/04/21 07:58:39;;;;;;;23.23;15.20;;;;;;;;;;766146;181;921017;-59
2023/04/21 08:01:04;;;;;;;26.93;15.97;;;;;;;;;;765520;181;820222;-60
2023/04/21 08:03:30;;;;;;;25.60;14.10;;;;;;;;;;768295;182;823988;-59
2023/04/21 08:05:56;;;;;;;21.17;15.30;;;;;;;;;;763386;181;912871;-60
2023/04/21 08:08:22;;;;;;;21.73;13.40;;;;;;;;;;759658;182;933277;-59
2023/04/21 08:10:48;;;;;;;20.00;13.23;;;;;;;;;;757577;183;915938;-62
2023/04/21 08:13:14;;;;;;;25.50;14.40;;;;;;;;;;761784;181;808113;-61
2023/04/21 08:15:40;;;;;;;24.53;13.10;;;;;;;;;;769528;181;916116;-61
2023/04/21 08:18:06;;;;;;;25.80;17.00;;;;;;;;;;755082;182;887623;-61
2023/04/21 08:20:32;;;;;;;19.33;12.63;;;;;;;;;;740374;190;921221;-62
2023/04/21 08:22:58;;;;;;;29.20;13.20;;;;;;;;;;729305;191;817080;-60
2023/04/21 08:25:24;;;;;;;20.17;14.20;;;;;;;;;;757420;182;925915;-61
2023/04/21 08:27:50;;;;;;;19.07;11.50;;;;;;;;;;765804;182;914992;-61
2023/04/21 08:30:16;;;;;;;26.03;13.73;;;;;;;;;;765152;182;918583;-60
2023/04/21 08:32:42;;;;;;;19.80;13.30;;;;;;;;;;764123;181;920127;-61
2023/04/21 08:35:08;;;;;;;29.90;13.70;;;;;;;;;;772165;182;914615;-59
2023/04/21 08:37:34;;;;;;;24.73;15.23;;;;;;;;;;768922;182;918399;-61
2023/04/21 08:39:59;;;;;;;16.27;11.03;;;;;;;;;;762226;184;917934;-60
2023/04/21 08:42:25;;;;;;;21.97;13.07;;;;;;;;;;762163;183;920652;-61
2023/04/21 08:44:51;;;;;;;21.57;11.47;;;;;;;;;;767686;182;922981;-60
2023/04/21 08:47:17;;;;;;;21.50;13.57;;;;;;;;;;763454;182;901605;-59
2023/04/21 08:49:44;;;;;;;18.57;12.40;;;;;;;;;;760453;182;800788;-59
2023/04/21 08:52:09;;;;;;;21.80;10.90;;;;;;;;;;768826;182;633070;-59
2023/04/21 08:54:36;;;;;;;20.53;12.83;;;;;;;;;;771850;182;626044;-59
2023/04/21 08:57:02;;;;;;;18.03;11.47;;;;;;;;;;774060;181;633476;-59
2023/04/21 08:59:27;;;;;;;19.53;11.93;;;;;;;;;;770689;182;624559;-59
2023/04/21 09:01:59;;;;;;;26.23;14.87;;;;;;;;;;766714;183;636440;-61
2023/04/21 09:04:24;;;;;;;26.07;11.10;;;;;;;;;;767664;182;901613;-59
2023/04/21 09:06:50;;;;;;;21.40;11.63;;;;;;;;;;766115;182;936561;-60
2023/04/21 09:09:16;;;;;;;34.03;12.87;;;;;;;;;;765409;182;851123;-59
2023/04/21 09:11:42;;;;;;;17.03;10.40;;;;;;;;;;756053;184;918367;-59
2023/04/21 09:14:08;;;;;;;19.40;10.53;;;;;;;;;;761730;182;918172;-60
2023/04/21 09:16:34;;;;;;;14.40;10.43;;;;;;;;;;756761;182;920245;-59
2023/04/21 09:19:00;;;;;;;16.67;7.60;;;;;;;;;;749273;183;926361;-59
2023/04/21 09:21:26;;;;;;;17.03;9.13;;;;;;;;;;734328;189;919920;-61
2023/04/21 09:23:54;;;;;;;14.50;7.97;;;;;;;;;;736907;188;919149;-60
2023/04/21 09:26:18;;;;;;;15.20;7.40;;;;;;;;;;760394;183;668381;-60
2023/04/21 09:28:44;;;;;;;20.67;9.20;;;;;;;;;;755671;182;933662;-61
2023/04/21 09:31:13;;;;;;;17.57;6.97;;;;;;;;;;763256;182;817320;-59
2023/04/21 09:33:38;;;;;;;15.33;8.73;;;;;;;;;;751949;184;813669;-59
2023/04/21 09:36:04;;;;;;;15.02;8.00;;;;;;;;;;764053;181;818936;-59
2023/04/21 09:38:30;;;;;;;10.80;7.13;;;;;;;;;;763771;182;827414;-61
2023/04/21 09:40:57;;;;;;;15.50;7.87;;;;;;;;;;767628;183;904412;-61
2023/04/21 09:43:23;;;;;;;14.23;7.03;;;;;;;;;;765861;181;825948;-61
2023/04/21 09:45:48;;;;;;;25.70;8.77;;;;;;;;;;753355;182;919596;-61
2023/04/21 09:48:15;;;;;;;13.98;6.75;;;;;;;;;;757817;181;919322;-59
2023/04/21 09:50:41;;;;;;;11.43;6.87;;;;;;;;;;757462;185;918178;-59
2023/04/21 09:53:06;;;;;;;12.03;7.00;;;;;;;;;;743423;183;874319;-59
2023/04/21 09:55:32;;;;;;;13.40;6.73;;;;;;;;;;762215;182;923695;-61
2023/04/21 09:57:58;;;;;;;12.10;7.10;;;;;;;;;;766549;182;909823;-60
2023/04/21 10:00:24;;;;;;;11.60;7.00;;;;;;;;;;764603;182;920368;-61
2023/04/21 10:02:49;;;;;;;11.57;6.60;;;;;;;;;;762484;182;919099;-60
2023/04/21 10:05:15;;;;;;;22.00;7.30;;;;;;;;;;766442;181;919444;-61
2023/04/21 10:07:41;;;;;;;9.93;6.87;;;;;;;;;;757360;182;1502665;-62
2023/04/21 10:10:07;;;;;;;10.33;7.13;;;;;;;;;;759024;182;920722;-60
2023/04/21 10:12:33;;;;;;;12.93;7.95;;;;;;;;;;761384;182;921426;-59
2023/04/21 10:14:59;;;;;;;12.70;7.97;;;;;;;;;;768402;182;720422;-61
2023/04/21 10:17:25;;;;;;;10.73;5.70;;;;;;;;;;762664;182;922113;-61
2023/04/21 10:19:55;;;;;;;9.80;5.55;;;;;;;;;;763004;182;918386;-59
2023/04/21 10:22:26;;;;;;;10.43;6.87;;;;;;;;;;769759;182;821321;-59
2023/04/21 10:24:51;;;;;;;14.20;6.65;;;;;;;;;;766146;180;918810;-59
2023/04/21 10:27:17;;;;;;;11.47;7.00;;;;;;;;;;764603;182;922068;-61
2023/04/21 10:29:43;;;;;;;11.30;5.77;;;;;;;;;;763491;182;933684;-59
2023/04/21 10:32:09;;;;;;;13.80;7.90;;;;;;;;;;766844;182;867035;-59
2023/04/21 10:34:35;;;;;;;13.20;7.27;;;;;;;;;;763014;180;884694;-61
2023/04/21 10:37:11;;;;;;;13.77;6.80;;;;;;;;;;762618;182;917819;-59
2023/04/21 10:39:36;;;;;;;8.33;5.43;;;;;;;;;;760907;181;918933;-59
2023/04/21 10:42:08;;;;;;;13.00;5.90;;;;;;;;;;768216;182;916631;-59
2023/04/21 10:44:33;;;;;;;16.90;7.53;;;;;;;;;;762768;182;882851;-59
2023/04/21 10:46:59;;;;;;;15.30;8.20;;;;;;;;;;766695;182;816972;-59
2023/04/21 10:49:25;;;;;;;12.93;6.73;;;;;;;;;;755093;182;918517;-60
2023/04/21 10:52:05;;;;;;;10.37;5.97;;;;;;;;;;760277;182;906661;-59
2023/04/21 10:54:40;;;;;;;10.70;6.50;;;;;;;;;;763187;182;931696;-60
2023/04/21 10:57:03;;;;;;;12.23;6.77;;;;;;;;;;757216;182;919636;-60
2023/04/21 10:59:29;;;;;;;15.10;6.50;;;;;;;;;;764319;182;914954;-62
2023/04/21 11:01:54;;;;;;;13.73;7.90;;;;;;;;;;766159;182;914105;-60
2023/04/21 11:04:20;;;;;;;15.67;7.47;;;;;;;;;;751159;184;913060;-61
2023/04/21 11:06:52;;;;;;;12.00;7.40;;;;;;;;;;762598;182;848934;-61
2023/04/21 11:09:18;;;;;;;9.07;6.40;;;;;;;;;;760462;182;918414;-61
2023/04/21 11:11:44;;;;;;;10.40;6.37;;;;;;;;;;761061;182;853355;-62
2023/04/21 11:14:09;;;;;;;8.67;6.67;;;;;;;;;;763345;181;919553;-62
2023/04/21 11:16:36;;;;;;;12.33;7.97;;;;;;;;;;761122;182;925656;-60
2023/04/21 11:19:01;;;;;;;20.30;8.00;;;;;;;;;;767128;182;916491;-60
2023/04/21 11:21:27;;;;;;;11.07;6.80;;;;;;;;;;760941;182;920567;-60
2023/04/21 11:23:53;;;;;;;11.87;8.40;;;;;;;;;;761681;182;920210;-60
2023/04/21 11:26:19;;;;;;;20.47;8.87;;;;;;;;;;768420;180;817297;-60
2023/04/21 11:28:48;;;;;;;17.30;9.00;;;;;;;;;;762269;182;921196;-60
2023/04/21 11:31:13;;;;;;;18.40;8.87;;;;;;;;;;763266;182;919459;-60
2023/04/21 11:33:39;;;;;;;16.53;8.67;;;;;;;;;;751227;185;923059;-63
2023/04/21 11:36:05;;;;;;;15.50;7.90;;;;;;;;;;760583;183;835396;-61
2023/04/21 11:38:35;;;;;;;20.33;7.23;;;;;;;;;;765109;181;843083;-63
2023/04/21 11:41:01;;;;;;;16.03;7.50;;;;;;;;;;764934;181;915089;-63
2023/04/21 11:43:27;;;;;;;19.93;9.83;;;;;;;;;;765903;182;914589;-62
2023/04/21 11:45:53;;;;;;;14.20;8.23;;;;;;;;;;761706;182;911965;-62
2023/04/21 11:48:19;;;;;;;12.97;8.67;;;;;;;;;;766009;182;849984;-63
2023/04/21 11:50:46;;;;;;;12.25;6.95;;;;;;;;;;753855;186;919027;-60
2023/04/21 11:53:12;;;;;;;12.80;7.73;;;;;;;;;;763563;182;916300;-63
2023/04/21 11:55:38;;;;;;;11.23;7.30;;;;;;;;;;761106;179;923874;-60
2023/04/21 11:58:04;;;;;;;9.55;7.78;;;;;;;;;;763596;182;905984;-60
2023/04/21 12:00:30;;;;;;;15.73;8.47;;;;;;;;;;770674;180;816898;-62
2023/04/21 12:02:56;;;;;;;10.37;7.50;;;;;;;;;;762488;182;822044;-62
2023/04/21 12:05:22;;;;;;;10.00;7.63;;;;;;;;;;768564;180;858520;-61
2023/04/21 12:07:48;;;;;;;12.37;7.63;;;;;;;;;;770684;182;642788;-61
2023/04/21 12:10:14;;;;;;;13.20;7.33;;;;;;;;;;763421;182;823312;-60
2023/04/21 12:12:40;;;;;;;15.43;8.17;;;;;;;;;;759485;182;919650;-59
2023/04/21 12:15:06;;;;;;;10.10;7.65;;;;;;;;;;765834;182;923773;-60
2023/04/21 12:17:37;;;;;;;11.20;7.87;;;;;;;;;;763321;181;846176;-60
2023/04/21 12:20:06;;;;;;;15.00;7.50;;;;;;;;;;758849;182;916427;-61
2023/04/21 12:22:31;;;;;;;11.57;6.03;;;;;;;;;;760321;182;916946;-62
2023/04/21 12:24:57;;;;;;;11.30;6.60;;;;;;;;;;766654;181;914393;-62
2023/04/21 12:27:23;;;;;;;13.70;7.33;;;;;;;;;;761331;181;916816;-62
2023/04/21 12:29:49;;;;;;;11.80;7.40;;;;;;;;;;766124;180;919036;-62
2023/04/21 12:32:14;;;;;;;14.30;7.00;;;;;;;;;;761401;181;918132;-62
2023/04/21 12:34:40;;;;;;;11.20;6.87;;;;;;;;;;762965;182;619197;-59
2023/04/21 12:37:06;;;;;;;9.50;7.23;;;;;;;;;;764617;181;918568;-61
2023/04/21 12:39:32;;;;;;;9.20;6.00;;;;;;;;;;765943;181;816065;-61
2023/04/21 12:41:58;;;;;;;7.70;5.70;;;;;;;;;;768799;182;820960;-61
2023/04/21 12:44:24;;;;;;;9.60;5.63;;;;;;;;;;763050;181;921350;-61
2023/04/21 12:46:50;;;;;;;9.57;5.43;;;;;;;;;;762752;182;861184;-61
2023/04/21 12:49:16;;;;;;;9.20;5.60;;;;;;;;;;769622;182;815639;-60
2023/04/21 12:51:42;;;;;;;10.50;6.30;;;;;;;;;;763464;181;920046;-59
2023/04/21 12:54:07;;;;;;;13.50;6.50;;;;;;;;;;763928;182;918356;-60
2023/04/21 12:56:33;;;;;;;7.23;5.30;;;;;;;;;;765530;180;919270;-60
2023/04/21 12:58:59;;;;;;;6.43;4.60;;;;;;;;;;767144;180;702077;-60
2023/04/21 13:01:25;;;;;;;6.40;4.60;;;;;;;;;;764299;182;919715;-59
2023/04/21 13:03:51;;;;;;;9.73;5.67;;;;;;;;;;763579;182;842120;-61
2023/04/21 13:06:17;;;;;;;8.20;6.00;;;;;;;;;;766571;182;920553;-60
2023/04/21 13:08:43;;;;;;;10.93;5.80;;;;;;;;;;761844;182;917364;-59
2023/04/21 13:11:09;;;;;;;8.07;5.30;;;;;;;;;;760916;182;918990;-60
2023/04/21 13:13:35;;;;;;;11.53;6.30;;;;;;;;;;762995;182;916077;-62
2023/04/21 13:16:01;;;;;;;8.00;6.17;;;;;;;;;;764026;182;936799;-62
2023/04/21 13:18:27;;;;;;;10.97;5.73;;;;;;;;;;754446;182;817814;-59
2023/04/21 13:20:52;;;;;;;9.70;7.57;;;;;;;;;;763357;181;867360;-61
2023/04/21 13:23:18;;;;;;;13.20;6.33;;;;;;;;;;744791;186;864214;-61
2023/04/21 13:25:44;;;;;;;7.77;6.97;;;;;;;;;;748063;184;920255;-61
2023/04/21 13:28:10;;;;;;;6.27;5.10;;;;;;;;;;761095;182;919322;-62
2023/04/21 13:30:36;;;;;;;7.93;5.33;;;;;;;;;;767790;182;919293;-61
2023/04/21 13:33:02;;;;;;;11.30;5.60;;;;;;;;;;759858;182;918581;-63
2023/04/21 13:35:27;;;;;;;16.30;6.50;;;;;;;;;;762367;182;821110;-60
2023/04/21 13:37:53;;;;;;;16.07;6.00;;;;;;;;;;766060;182;818307;-60
2023/04/21 13:40:19;;;;;;;10.20;6.13;;;;;;;;;;763209;182;888211;-61
2023/04/21 13:42:45;;;;;;;8.23;6.50;;;;;;;;;;765570;181;919083;-60
2023/04/21 13:45:11;;;;;;;9.80;6.03;;;;;;;;;;765361;182;920616;-62
2023/04/21 13:47:37;;;;;;;10.40;6.50;;;;;;;;;;762310;181;906474;-61
2023/04/21 13:50:03;;;;;;;7.40;5.37;;;;;;;;;;757836;181;918917;-61
2023/04/21 13:52:29;;;;;;;10.77;6.47;;;;;;;;;;763003;182;816899;-62
2023/04/21 13:54:54;;;;;;;6.90;5.27;;;;;;;;;;766454;182;816005;-61
2023/04/21 13:57:20;;;;;;;6.87;5.27;;;;;;;;;;762956;180;918425;-60
2023/04/21 13:59:46;;;;;;;6.97;4.43;;;;;;;;;;762510;180;828046;-60
2023/04/21 14:02:12;;;;;;;7.17;4.40;;;;;;;;;;770220;181;806908;-61
2023/04/21 14:04:38;;;;;;;7.20;4.73;;;;;;;;;;760670;182;870237;-60